Hawkins, Texas
Current Conditions -  °F | °C
As of 9:26 AM on Thursday 18 Dec 2014 (Local Time) from KTYR Reporting Station
Haze Haze  
Wind Chill: 44°   Ceiling: 400
Heat Index: 46°   Visibility: 3mi
Dew Point: 44°   Wind: 5mph
Humidity: 93%   Direction: 80°E
Pressure: 30.16"   Gusts: NA
Location:  32.59°N, 95.2°W
Report Text: KTYR 181526Z 08004KT 3SM BR OVC004 08/07 A3016 RMK AO2 T00780067
Loading
Personal Weather Stations






























Interactive Weather Map New forecast layout! Learn more

10-Day Weather Forecast

Advertisements
Track Severe Weather on mobile